SBYC BurgeeSandy Bay Yacht Club
Weather Center


Nearby METAR Reports

Nearby METAR Reports

 

KBVY - Beverly, Massachusetts, USA
Distance from station: WSW 16mi, 26km
Updated: Sun, 21-Jul-2019 4:53pm EDT
Clear
Clear
 Wind from WNW
Wind: WNW 12 mph , 19 km/h, Gust: 21 mph , 33 km/h
Temperature: 93°F , 34°C
Heat Index: 99°F , 37°C
Dew Point: 70°F , 21°C
Humidity: 47%
Barometer: 29.69 inHg , 1005.4 hPa
Clouds: Clear
Visibility: 10 miles , 16 km
2019/07/21 20:53 KBVY 212053Z 30010G18KT 10SM CLR 34/21 A2969 RMK AO2 SLP046 T03390206 53010
KLWM - Lawrence, Massachusetts, USA
Distance from station: W 27mi, 43km
Updated: Sun, 21-Jul-2019 4:54pm EDT
Mostly Cloudy
Mostly Cloudy
 Wind from WSW
Wind: WSW 13 mph , 20 km/h, Gust: 21 mph , 33 km/h
Temperature: 90°F , 32°C
Heat Index: 96°F , 36°C
Dew Point: 70°F , 21°C
Humidity: 52%
Barometer: 29.71 inHg , 1006.1 hPa
Clouds: Mostly Cloudy
Visibility: 10 miles , 16 km
Cloud details: Mostly Cloudy 6000 ft
Mostly Cloudy 7500 ft
2019/07/21 20:54 KLWM 212054Z 25011G18KT 10SM BKN060 BKN075 32/21 A2971 RMK AO2 SLP061 T03220206 51011
 
KBOS - Boston, Massachusetts, USA
Distance from station: SW 29mi, 46km
Updated: Sun, 21-Jul-2019 4:54pm EDT
Partly Cloudy
Partly Cloudy
 Wind from WNW
Wind: WNW 16 mph , 26 km/h
Temperature: 97°F , 36°C
Dew Point: 66°F , 19°C
Humidity: 37%
Barometer: 29.70 inHg , 1005.8 hPa
Clouds: Partly Cloudy
Visibility: 10 miles , 16 km
Cloud details: Partly Cloudy 7000 ft
2019/07/21 20:54 KBOS 212054Z 29014KT 10SM SCT070 36/19 A2970 RMK AO2 SLP055 T03610189 53008
KPSM - Portsmouth/Pease, New Hampshire, USA
Distance from station: NNW 30mi, 48km
Updated: Sun, 21-Jul-2019 4:56pm EDT
Nearby showers, Mostly cloudy
Nearby showers, Mostly cloudy
 Wind from WNW
Wind: WNW 12 mph , 19 km/h
Temperature: 91°F , 33°C
Heat Index: 94°F , 34°C
Dew Point: 66°F , 19°C
Humidity: 44%
Barometer: 29.68 inHg , 1005.1 hPa
Summary: Nearby Showers
Clouds: Mostly Cloudy
Visibility: 10 miles , 16 km
Cloud details: Partly Cloudy 6000 ft
Mostly Cloudy 7500 ft
Mostly Cloudy 20000 ft
2019/07/21 20:56 KPSM 212056Z 30010KT 10SM VCSH SCT060 BKN075 BKN200 33/19 A2968 RMK AO2A SLP052 T03270192 52013
 
KMHT - Manchester, New Hampshire, USA
Distance from station: WNW 46mi, 73km
Updated: Sun, 21-Jul-2019 4:53pm EDT
Mostly Cloudy
Mostly Cloudy
 Wind from WNW
Wind: WNW 9 mph , 15 km/h
Temperature: 91°F , 33°C
Heat Index: 95°F , 35°C
Dew Point: 68°F , 20°C
Humidity: 46%
Barometer: 29.70 inHg , 1005.8 hPa
Clouds: Mostly Cloudy
Visibility: 10 miles , 16 km
Cloud details: Mostly Cloudy 7000 ft
2019/07/21 20:53 KMHT 212053Z 30008KT 10SM BKN070 33/20 A2970 RMK AO2 SLP063 T03330200 53009
KPVC - Provincetown, Massachusetts, USA
Distance from station: SSE 46mi, 73km
Updated: Sun, 21-Jul-2019 4:56pm EDT
Few Clouds
Few Clouds
 Wind from W
Wind: W 10 mph , 17 km/h
Temperature: 90°F , 32°C
Heat Index: 99°F , 37°C
Dew Point: 73°F , 23°C
Humidity: 59%
Barometer: 29.71 inHg , 1006.1 hPa
Clouds: Few Clouds
Visibility: 10 miles , 16 km
Cloud details: Few Clouds 100 ft
2019/07/21 20:56 KPVC 212056Z AUTO 27009KT 10SM FEW001 32/23 A2971 RMK AO2 SLP059 6//// T03170228 51006 PNO $
 
KDAW - Rochester, New Hampshire, USA
Distance from station: NNW 46mi, 74km
Updated: Sun, 21-Jul-2019 4:51pm EDT
Few Clouds
Few Clouds
 Wind from WNW
Wind: WNW 8 mph , 13 km/h, Gust: 18 mph , 30 km/h
Temperature: 90°F , 32°C
Heat Index: 92°F , 33°C
Dew Point: 64°F , 18°C
Humidity: 43%
Barometer: 29.69 inHg , 1005.4 hPa
Clouds: Few Clouds
Visibility: 10 miles , 16 km
Cloud details: Few Clouds 9000 ft
2019/07/21 20:51 KDAW 212051Z AUTO 29007G16KT 10SM FEW090 32/18 A2969 RMK AO2 SLP049 T03220178 53012
KASH - Nashua/Boire Fld, New Hampshire, USA
Distance from station: W 47mi, 75km
Updated: Sun, 21-Jul-2019 4:56pm EDT
Partly Cloudy
Partly Cloudy
 Wind from W
Wind: W 10 mph , 17 km/h, Gust: 16 mph , 26 km/h
Temperature: 91°F , 33°C
Heat Index: 98°F , 37°C
Dew Point: 72°F , 22°C
Humidity: 52%
Barometer: 29.71 inHg , 1006.1 hPa
Clouds: Partly Cloudy
Visibility: 10 miles , 16 km
Cloud details: Partly Cloudy 6000 ft
2019/07/21 20:56 KASH 212056Z 27009G14KT 10SM SCT060 33/22 A2971 RMK AO2 SLP065 T03280222 53008
 
KSFM - Sanford Muni, Maine, USA
Distance from station: N 50mi, 81km
Updated: Sun, 21-Jul-2019 4:56pm EDT
Clear
Clear
 Wind from WNW
Wind: WNW 12 mph , 19 km/h
Temperature: 91°F , 33°C
Heat Index: 95°F , 35°C
Dew Point: 68°F , 20°C
Humidity: 46%
Barometer: 29.70 inHg , 1005.8 hPa
Clouds: Clear
Visibility: 10 miles , 16 km
2019/07/21 20:56 KSFM 212056Z AUTO 29010KT 10SM CLR 33/20 A2970 RMK AO2 SLP055 6//// T03330200 53013 PNO $

Metar display script from Saratoga-Weather.org

 



home

Copyright © Sandy Bay Yacht Club. All rights reserved.